sensor_id;sensor_type;location;lat;lon;timestamp;temperature;humidity
66831;DHT22;53739;44.224;22.528;2023-06-05T00:00:57;410.40;2355.20
66831;DHT22;53739;44.224;22.528;2023-06-05T00:03:23;410.50;2355.20
66831;DHT22;53739;44.224;22.528;2023-06-05T00:05:52;410.50;2355.20
66831;DHT22;53739;44.224;22.528;2023-06-05T00:08:18;410.50;2355.20
66831;DHT22;53739;44.224;22.528;2023-06-05T00:10:44;410.50;2355.20
66831;DHT22;53739;44.224;22.528;2023-06-05T00:13:10;435.20;2355.20
66831;DHT22;53739;44.224;22.528;2023-06-05T00:15:35;435.20;2355.20
66831;DHT22;53739;44.224;22.528;2023-06-05T00:18:03;435.20;2355.20
66831;DHT22;53739;44.224;22.528;2023-06-05T00:20:32;435.20;2355.20
66831;DHT22;53739;44.224;22.528;2023-06-05T00:22:57;435.20;2355.20
66831;DHT22;53739;44.224;22.528;2023-06-05T00:25:24;435.20;2355.20
66831;DHT22;53739;44.224;22.528;2023-06-05T00:27:49;435.20;2355.20
66831;DHT22;53739;44.224;22.528;2023-06-05T00:30:15;410.50;2355.20
66831;DHT22;53739;44.224;22.528;2023-06-05T00:32:42;410.50;2355.20
66831;DHT22;53739;44.224;22.528;2023-06-05T00:35:08;410.50;2355.20
66831;DHT22;53739;44.224;22.528;2023-06-05T00:37:34;410.50;2355.20
66831;DHT22;53739;44.224;22.528;2023-06-05T00:40:00;410.50;2355.20
66831;DHT22;53739;44.224;22.528;2023-06-05T00:42:26;435.20;2355.20
66831;DHT22;53739;44.224;22.528;2023-06-05T00:44:52;435.20;2355.20
66831;DHT22;53739;44.224;22.528;2023-06-05T00:47:19;410.50;2355.20
66831;DHT22;53739;44.224;22.528;2023-06-05T00:49:45;435.20;2355.20
66831;DHT22;53739;44.224;22.528;2023-06-05T00:52:11;435.20;2355.20
66831;DHT22;53739;44.224;22.528;2023-06-05T00:54:37;435.20;2355.20
66831;DHT22;53739;44.224;22.528;2023-06-05T00:57:03;435.20;2355.20
66831;DHT22;53739;44.224;22.528;2023-06-05T00:59:31;410.50;2355.20
66831;DHT22;53739;44.224;22.528;2023-06-05T01:01:58;410.50;2355.20
66831;DHT22;53739;44.224;22.528;2023-06-05T01:04:24;410.40;2355.20
66831;DHT22;53739;44.224;22.528;2023-06-05T01:06:52;410.30;2355.20
66831;DHT22;53739;44.224;22.528;2023-06-05T01:09:19;410.30;2355.20
66831;DHT22;53739;44.224;22.528;2023-06-05T01:11:58;410.40;2355.20
66831;DHT22;53739;44.224;22.528;2023-06-05T01:14:28;410.40;2355.20
66831;DHT22;53739;44.224;22.528;2023-06-05T01:16:56;410.50;2355.20
66831;DHT22;53739;44.224;22.528;2023-06-05T01:19:26;410.30;2355.20
66831;DHT22;53739;44.224;22.528;2023-06-05T01:21:55;410.20;2355.20
66831;DHT22;53739;44.224;22.528;2023-06-05T01:24:24;410.30;2355.20
66831;DHT22;53739;44.224;22.528;2023-06-05T01:27:14;410.30;2355.20
66831;DHT22;53739;44.224;22.528;2023-06-05T01:30:03;410.40;2355.20
66831;DHT22;53739;44.224;22.528;2023-06-05T01:32:52;410.40;2355.20
66831;DHT22;53739;44.224;22.528;2023-06-05T01:35:20;410.20;2355.20
66831;DHT22;53739;44.224;22.528;2023-06-05T01:37:48;410.20;2355.20
66831;DHT22;53739;44.224;22.528;2023-06-05T01:40:16;410.20;2355.20
66831;DHT22;53739;44.224;22.528;2023-06-05T01:42:43;410.30;2355.20
66831;DHT22;53739;44.224;22.528;2023-06-05T01:45:10;410.40;2355.20
66831;DHT22;53739;44.224;22.528;2023-06-05T01:47:37;410.30;2355.20
66831;DHT22;53739;44.224;22.528;2023-06-05T01:50:05;410.30;2355.20
66831;DHT22;53739;44.224;22.528;2023-06-05T01:52:31;410.40;2355.20
66831;DHT22;53739;44.224;22.528;2023-06-05T01:54:57;410.40;2355.20
66831;DHT22;53739;44.224;22.528;2023-06-05T01:57:30;410.50;2355.20
66831;DHT22;53739;44.224;22.528;2023-06-05T01:59:59;410.50;2355.20
66831;DHT22;53739;44.224;22.528;2023-06-05T02:02:27;410.40;2355.20
66831;DHT22;53739;44.224;22.528;2023-06-05T02:04:54;410.30;2355.20
66831;DHT22;53739;44.224;22.528;2023-06-05T02:07:20;410.30;2355.20
66831;DHT22;53739;44.224;22.528;2023-06-05T02:09:47;410.30;2355.20
66831;DHT22;53739;44.224;22.528;2023-06-05T02:12:13;410.30;2355.20
66831;DHT22;53739;44.224;22.528;2023-06-05T02:14:40;410.40;2355.20
66831;DHT22;53739;44.224;22.528;2023-06-05T02:17:10;410.40;2355.20
66831;DHT22;53739;44.224;22.528;2023-06-05T02:19:39;410.40;2355.20
66831;DHT22;53739;44.224;22.528;2023-06-05T02:22:06;410.50;2355.20
66831;DHT22;53739;44.224;22.528;2023-06-05T02:24:32;410.50;2355.20
66831;DHT22;53739;44.224;22.528;2023-06-05T02:26:57;410.50;2355.20
66831;DHT22;53739;44.224;22.528;2023-06-05T02:29:24;410.50;2355.20
66831;DHT22;53739;44.224;22.528;2023-06-05T02:31:49;410.50;2355.20
66831;DHT22;53739;44.224;22.528;2023-06-05T02:34:15;410.40;2355.20
66831;DHT22;53739;44.224;22.528;2023-06-05T02:36:43;410.40;2355.20
66831;DHT22;53739;44.224;22.528;2023-06-05T02:39:11;410.30;2355.20
66831;DHT22;53739;44.224;22.528;2023-06-05T02:41:38;410.40;2355.20
66831;DHT22;53739;44.224;22.528;2023-06-05T02:44:04;410.40;2355.20
66831;DHT22;53739;44.224;22.528;2023-06-05T02:46:29;410.50;2355.20
66831;DHT22;53739;44.224;22.528;2023-06-05T02:48:55;410.40;2355.20
66831;DHT22;53739;44.224;22.528;2023-06-05T02:51:21;410.40;2355.20
66831;DHT22;53739;44.224;22.528;2023-06-05T02:53:47;410.40;2355.20
66831;DHT22;53739;44.224;22.528;2023-06-05T02:56:13;410.40;2355.20
66831;DHT22;53739;44.224;22.528;2023-06-05T02:58:41;410.40;2355.20
66831;DHT22;53739;44.224;22.528;2023-06-05T03:01:09;410.50;2355.20
66831;DHT22;53739;44.224;22.528;2023-06-05T03:03:36;410.50;2355.20
66831;DHT22;53739;44.224;22.528;2023-06-05T03:06:02;410.50;2355.20
66831;DHT22;53739;44.224;22.528;2023-06-05T03:08:36;410.50;2355.20
66831;DHT22;53739;44.224;22.528;2023-06-05T03:11:03;410.50;2355.20
66831;DHT22;53739;44.224;22.528;2023-06-05T03:13:29;410.50;2355.20
66831;DHT22;53739;44.224;22.528;2023-06-05T03:15:56;410.50;2355.20
66831;DHT22;53739;44.224;22.528;2023-06-05T03:18:26;410.50;2355.20
66831;DHT22;53739;44.224;22.528;2023-06-05T03:20:52;410.50;2355.20
66831;DHT22;53739;44.224;22.528;2023-06-05T03:23:30;410.50;2355.20
66831;DHT22;53739;44.224;22.528;2023-06-05T03:25:56;410.40;2355.20
66831;DHT22;53739;44.224;22.528;2023-06-05T03:28:23;410.30;2355.20
66831;DHT22;53739;44.224;22.528;2023-06-05T03:30:49;410.40;2355.20
66831;DHT22;53739;44.224;22.528;2023-06-05T03:33:15;410.30;2355.20
66831;DHT22;53739;44.224;22.528;2023-06-05T03:35:42;410.40;2355.20
66831;DHT22;53739;44.224;22.528;2023-06-05T03:38:12;410.30;2355.20
66831;DHT22;53739;44.224;22.528;2023-06-05T03:40:37;410.20;2355.20
66831;DHT22;53739;44.224;22.528;2023-06-05T03:43:07;410.20;2355.20
66831;DHT22;53739;44.224;22.528;2023-06-05T03:45:35;410.20;2355.20
66831;DHT22;53739;44.224;22.528;2023-06-05T03:48:01;410.30;2355.20
66831;DHT22;53739;44.224;22.528;2023-06-05T03:50:28;410.20;2355.20
66831;DHT22;53739;44.224;22.528;2023-06-05T03:52:57;410.20;2355.20
66831;DHT22;53739;44.224;22.528;2023-06-05T03:55:32;410.30;2355.20
66831;DHT22;53739;44.224;22.528;2023-06-05T03:58:14;410.40;2355.20
66831;DHT22;53739;44.224;22.528;2023-06-05T04:00:45;410.50;2355.20
66831;DHT22;53739;44.224;22.528;2023-06-05T04:03:12;435.20;2355.20
66831;DHT22;53739;44.224;22.528;2023-06-05T04:05:39;435.30;2355.20
66831;DHT22;53739;44.224;22.528;2023-06-05T04:08:06;435.30;2355.20
66831;DHT22;53739;44.224;22.528;2023-06-05T04:10:32;435.30;2355.20
66831;DHT22;53739;44.224;22.528;2023-06-05T04:12:58;435.40;2355.20
66831;DHT22;53739;44.224;22.528;2023-06-05T04:15:24;435.50;2355.20
66831;DHT22;53739;44.224;22.528;2023-06-05T04:17:50;435.50;2355.20
66831;DHT22;53739;44.224;22.528;2023-06-05T04:20:16;435.60;2355.20
66831;DHT22;53739;44.224;22.528;2023-06-05T04:22:43;435.60;2355.20
66831;DHT22;53739;44.224;22.528;2023-06-05T04:25:10;435.60;2355.20
66831;DHT22;53739;44.224;22.528;2023-06-05T04:27:38;435.70;2355.20
66831;DHT22;53739;44.224;22.528;2023-06-05T04:30:09;435.80;2355.20
66831;DHT22;53739;44.224;22.528;2023-06-05T04:32:36;435.60;2355.20
66831;DHT22;53739;44.224;22.528;2023-06-05T04:35:07;435.60;2355.20
66831;DHT22;53739;44.224;22.528;2023-06-05T04:37:34;435.60;1996.80
66831;DHT22;53739;44.224;22.528;2023-06-05T04:40:01;435.60;2355.20
66831;DHT22;53739;44.224;22.528;2023-06-05T04:42:34;435.70;2355.20
66831;DHT22;53739;44.224;22.528;2023-06-05T04:45:04;435.80;2355.20
66831;DHT22;53739;44.224;22.528;2023-06-05T04:47:31;435.80;2355.20
66831;DHT22;53739;44.224;22.528;2023-06-05T04:50:04;435.80;2355.20
66831;DHT22;53739;44.224;22.528;2023-06-05T04:52:34;435.80;2355.20
66831;DHT22;53739;44.224;22.528;2023-06-05T04:55:06;435.90;1945.60
66831;DHT22;53739;44.224;22.528;2023-06-05T04:57:32;435.90;2048.00
66831;DHT22;53739;44.224;22.528;2023-06-05T04:59:58;436.00;2355.20
66831;DHT22;53739;44.224;22.528;2023-06-05T05:02:24;436.00;2355.20
66831;DHT22;53739;44.224;22.528;2023-06-05T05:04:49;460.80;2380.80
66831;DHT22;53739;44.224;22.528;2023-06-05T05:07:15;460.90;2099.20
66831;DHT22;53739;44.224;22.528;2023-06-05T05:09:45;461.10;128.00
66831;DHT22;53739;44.224;22.528;2023-06-05T05:12:11;461.30;128.00
66831;DHT22;53739;44.224;22.528;2023-06-05T05:14:38;461.40;128.00
66831;DHT22;53739;44.224;22.528;2023-06-05T05:24:03;486.50;512.00
66831;DHT22;53739;44.224;22.528;2023-06-05T05:26:29;486.60;128.00
66831;DHT22;53739;44.224;22.528;2023-06-05T05:29:05;486.70;128.00
66831;DHT22;53739;44.224;22.528;2023-06-05T05:31:33;486.70;128.00
66831;DHT22;53739;44.224;22.528;2023-06-05T05:34:00;486.80;128.00
66831;DHT22;53739;44.224;22.528;2023-06-05T05:36:37;486.80;128.00
66831;DHT22;53739;44.224;22.528;2023-06-05T05:39:12;486.90;2380.80
66831;DHT22;53739;44.224;22.528;2023-06-05T05:41:58;487.00;128.00
66831;DHT22;53739;44.224;22.528;2023-06-05T05:44:28;487.10;204.80
66831;DHT22;53739;44.224;22.528;2023-06-05T05:53:28;487.30;128.00
66831;DHT22;53739;44.224;22.528;2023-06-05T05:56:05;512.30;2380.80
66831;DHT22;53739;44.224;22.528;2023-06-05T05:58:47;512.60;2022.40
66831;DHT22;53739;44.224;22.528;2023-06-05T06:01:16;512.60;2380.80
66831;DHT22;53739;44.224;22.528;2023-06-05T06:03:41;512.90;2380.80
66831;DHT22;53739;44.224;22.528;2023-06-05T06:06:26;512.70;2380.80
66831;DHT22;53739;44.224;22.528;2023-06-05T06:15:51;538.10;2406.40
66831;DHT22;53739;44.224;22.528;2023-06-05T06:18:39;538.20;2406.40
66831;DHT22;53739;44.224;22.528;2023-06-05T06:21:08;538.40;2406.40
66831;DHT22;53739;44.224;22.528;2023-06-05T06:23:33;563.30;2048.00
66831;DHT22;53739;44.224;22.528;2023-06-05T06:25:59;563.30;2432.00
66831;DHT22;53739;44.224;22.528;2023-06-05T06:31:14;563.30;2432.00
66831;DHT22;53739;44.224;22.528;2023-06-05T06:40:44;538.10;2406.40
66831;DHT22;53739;44.224;22.528;2023-06-05T06:43:27;538.40;2406.40
66831;DHT22;53739;44.224;22.528;2023-06-05T06:49:27;538.30;2406.40
66831;DHT22;53739;44.224;22.528;2023-06-05T06:52:33;538.20;2406.40
66831;DHT22;53739;44.224;22.528;2023-06-05T06:59:30;538.10;2406.40
66831;DHT22;53739;44.224;22.528;2023-06-05T07:02:25;538.00;2406.40
66831;DHT22;53739;44.224;22.528;2023-06-05T07:15:32;538.10;2406.40
66831;DHT22;53739;44.224;22.528;2023-06-05T07:22:06;563.40;2252.80
66831;DHT22;53739;44.224;22.528;2023-06-05T07:27:45;538.20;2406.40
66831;DHT22;53739;44.224;22.528;2023-06-05T07:30:14;538.20;2355.20
66831;DHT22;53739;44.224;22.528;2023-06-05T07:39:37;538.20;2406.40
66831;DHT22;53739;44.224;22.528;2023-06-05T07:42:04;538.20;2406.40
66831;DHT22;53739;44.224;22.528;2023-06-05T07:44:30;538.30;2406.40
66831;DHT22;53739;44.224;22.528;2023-06-05T07:47:00;538.50;2406.40
66831;DHT22;53739;44.224;22.528;2023-06-05T07:52:51;563.30;2432.00
66831;DHT22;53739;44.224;22.528;2023-06-05T07:58:53;563.50;2432.00
66831;DHT22;53739;44.224;22.528;2023-06-05T08:01:31;563.60;2432.00
66831;DHT22;53739;44.224;22.528;2023-06-05T08:04:02;563.90;2329.60
66831;DHT22;53739;44.224;22.528;2023-06-05T08:06:28;588.80;2227.20
66831;DHT22;53739;44.224;22.528;2023-06-05T08:11:27;589.10;128.00
66831;DHT22;53739;44.224;22.528;2023-06-05T08:13:54;589.30;2432.00
66831;DHT22;53739;44.224;22.528;2023-06-05T08:16:20;589.10;128.00
66831;DHT22;53739;44.224;22.528;2023-06-05T08:18:46;589.00;128.00
66831;DHT22;53739;44.224;22.528;2023-06-05T08:21:22;589.20;128.00
66831;DHT22;53739;44.224;22.528;2023-06-05T08:23:56;589.20;128.00
66831;DHT22;53739;44.224;22.528;2023-06-05T08:26:22;589.30;588.80
66831;DHT22;53739;44.224;22.528;2023-06-05T08:28:59;589.30;128.00
66831;DHT22;53739;44.224;22.528;2023-06-05T08:31:28;589.10;128.00
66831;DHT22;53739;44.224;22.528;2023-06-05T08:34:35;589.10;128.00
66831;DHT22;53739;44.224;22.528;2023-06-05T08:37:01;589.30;128.00
66831;DHT22;53739;44.224;22.528;2023-06-05T08:39:28;589.60;204.80
66831;DHT22;53739;44.224;22.528;2023-06-05T08:42:00;589.60;128.00
66831;DHT22;53739;44.224;22.528;2023-06-05T08:44:28;614.50;128.00
66831;DHT22;53739;44.224;22.528;2023-06-05T08:47:00;614.60;128.00
66831;DHT22;53739;44.224;22.528;2023-06-05T08:49:27;614.80;128.00
66831;DHT22;53739;44.224;22.528;2023-06-05T08:52:05;614.80;204.80
66831;DHT22;53739;44.224;22.528;2023-06-05T08:54:38;615.00;128.00
66831;DHT22;53739;44.224;22.528;2023-06-05T08:57:04;615.10;128.00
66831;DHT22;53739;44.224;22.528;2023-06-05T08:59:31;615.00;128.00
66831;DHT22;53739;44.224;22.528;2023-06-05T09:01:57;614.80;128.00
66831;DHT22;53739;44.224;22.528;2023-06-05T09:04:23;615.00;128.00
66831;DHT22;53739;44.224;22.528;2023-06-05T09:06:51;615.00;128.00
66831;DHT22;53739;44.224;22.528;2023-06-05T09:09:19;615.20;128.00
66831;DHT22;53739;44.224;22.528;2023-06-05T09:11:45;640.00;128.00
66831;DHT22;53739;44.224;22.528;2023-06-05T09:14:11;640.20;128.00
66831;DHT22;53739;44.224;22.528;2023-06-05T09:16:42;640.60;128.00
66831;DHT22;53739;44.224;22.528;2023-06-05T09:21:38;640.90;128.00
66831;DHT22;53739;44.224;22.528;2023-06-05T09:24:12;640.70;128.00
66831;DHT22;53739;44.224;22.528;2023-06-05T09:29:28;640.20;128.00
66831;DHT22;53739;44.224;22.528;2023-06-05T09:31:56;640.20;128.00
66831;DHT22;53739;44.224;22.528;2023-06-05T09:34:29;640.40;128.00
66831;DHT22;53739;44.224;22.528;2023-06-05T09:37:00;640.40;128.00
66831;DHT22;53739;44.224;22.528;2023-06-05T09:39:27;640.20;128.00
66831;DHT22;53739;44.224;22.528;2023-06-05T09:41:55;640.30;128.00
66831;DHT22;53739;44.224;22.528;2023-06-05T09:44:22;640.20;128.00
66831;DHT22;53739;44.224;22.528;2023-06-05T09:46:56;640.30;128.00
66831;DHT22;53739;44.224;22.528;2023-06-05T09:49:46;640.10;128.00
66831;DHT22;53739;44.224;22.528;2023-06-05T09:52:13;640.20;128.00
66831;DHT22;53739;44.224;22.528;2023-06-05T09:54:41;640.30;128.00
66831;DHT22;53739;44.224;22.528;2023-06-05T09:57:12;640.60;128.00
66831;DHT22;53739;44.224;22.528;2023-06-05T09:59:50;665.60;153.60
66831;DHT22;53739;44.224;22.528;2023-06-05T10:02:17;666.00;153.60
66831;DHT22;53739;44.224;22.528;2023-06-05T10:07:40;665.60;153.60
66831;DHT22;53739;44.224;22.528;2023-06-05T10:10:08;640.80;128.00
66831;DHT22;53739;44.224;22.528;2023-06-05T10:12:40;665.60;153.60
66831;DHT22;53739;44.224;22.528;2023-06-05T10:15:06;640.80;128.00
66831;DHT22;53739;44.224;22.528;2023-06-05T10:17:34;640.60;128.00
66831;DHT22;53739;44.224;22.528;2023-06-05T10:20:02;640.80;409.60
66831;DHT22;53739;44.224;22.528;2023-06-05T10:22:29;665.60;153.60
66831;DHT22;53739;44.224;22.528;2023-06-05T10:24:57;665.70;153.60
66831;DHT22;53739;44.224;22.528;2023-06-05T10:27:56;666.00;153.60
66831;DHT22;53739;44.224;22.528;2023-06-05T10:36:33;665.60;153.60
66831;DHT22;53739;44.224;22.528;2023-06-05T10:39:08;665.70;153.60
66831;DHT22;53739;44.224;22.528;2023-06-05T10:41:35;665.70;153.60
66831;DHT22;53739;44.224;22.528;2023-06-05T10:44:05;665.60;153.60
66831;DHT22;53739;44.224;22.528;2023-06-05T10:46:35;640.90;128.00
66831;DHT22;53739;44.224;22.528;2023-06-05T10:51:52;640.70;128.00
66831;DHT22;53739;44.224;22.528;2023-06-05T10:59:21;640.90;128.00
66831;DHT22;53739;44.224;22.528;2023-06-05T11:10:19;665.90;153.60
66831;DHT22;53739;44.224;22.528;2023-06-05T11:15:15;666.00;153.60
66831;DHT22;53739;44.224;22.528;2023-06-05T11:17:49;666.10;153.60
66831;DHT22;53739;44.224;22.528;2023-06-05T11:28:05;665.60;153.60
66831;DHT22;53739;44.224;22.528;2023-06-05T11:30:44;665.60;153.60
66831;DHT22;53739;44.224;22.528;2023-06-05T11:33:15;665.60;153.60
66831;DHT22;53739;44.224;22.528;2023-06-05T11:35:48;640.90;128.00
66831;DHT22;53739;44.224;22.528;2023-06-05T11:38:38;640.70;128.00
66831;DHT22;53739;44.224;22.528;2023-06-05T11:41:12;640.90;128.00
66831;DHT22;53739;44.224;22.528;2023-06-05T11:43:46;640.90;128.00
66831;DHT22;53739;44.224;22.528;2023-06-05T11:46:14;640.70;128.00
66831;DHT22;53739;44.224;22.528;2023-06-05T11:48:44;640.70;128.00
66831;DHT22;53739;44.224;22.528;2023-06-05T11:51:13;640.70;128.00
66831;DHT22;53739;44.224;22.528;2023-06-05T11:53:45;640.70;128.00
66831;DHT22;53739;44.224;22.528;2023-06-05T11:56:17;640.70;128.00
66831;DHT22;53739;44.224;22.528;2023-06-05T11:58:52;640.50;128.00
66831;DHT22;53739;44.224;22.528;2023-06-05T12:01:31;640.60;128.00
66831;DHT22;53739;44.224;22.528;2023-06-05T12:04:14;640.50;128.00
66831;DHT22;53739;44.224;22.528;2023-06-05T12:10:18;640.50;665.60
66831;DHT22;53739;44.224;22.528;2023-06-05T12:12:54;640.70;128.00
66831;DHT22;53739;44.224;22.528;2023-06-05T12:15:21;665.60;153.60
66831;DHT22;53739;44.224;22.528;2023-06-05T12:17:51;640.90;128.00
66831;DHT22;53739;44.224;22.528;2023-06-05T12:20:25;640.70;128.00
66831;DHT22;53739;44.224;22.528;2023-06-05T12:23:19;640.70;128.00
66831;DHT22;53739;44.224;22.528;2023-06-05T12:26:15;640.60;128.00
66831;DHT22;53739;44.224;22.528;2023-06-05T12:32:29;640.60;204.80
66831;DHT22;53739;44.224;22.528;2023-06-05T12:34:56;640.60;128.00
66831;DHT22;53739;44.224;22.528;2023-06-05T12:37:41;640.60;128.00
66831;DHT22;53739;44.224;22.528;2023-06-05T12:49:57;640.60;128.00
66831;DHT22;53739;44.224;22.528;2023-06-05T12:52:50;640.60;256.00
66831;DHT22;53739;44.224;22.528;2023-06-05T13:09:24;640.20;128.00
66831;DHT22;53739;44.224;22.528;2023-06-05T13:18:19;640.90;128.00
66831;DHT22;53739;44.224;22.528;2023-06-05T13:20:45;640.60;128.00
66831;DHT22;53739;44.224;22.528;2023-06-05T13:23:11;640.50;128.00
66831;DHT22;53739;44.224;22.528;2023-06-05T13:25:37;640.40;128.00
66831;DHT22;53739;44.224;22.528;2023-06-05T13:28:05;640.40;742.40
66831;DHT22;53739;44.224;22.528;2023-06-05T13:30:32;640.50;128.00
66831;DHT22;53739;44.224;22.528;2023-06-05T13:33:00;640.60;128.00
66831;DHT22;53739;44.224;22.528;2023-06-05T13:35:26;640.50;128.00
66831;DHT22;53739;44.224;22.528;2023-06-05T13:37:52;640.50;128.00
66831;DHT22;53739;44.224;22.528;2023-06-05T13:40:18;640.40;128.00
66831;DHT22;53739;44.224;22.528;2023-06-05T13:42:48;640.30;128.00
66831;DHT22;53739;44.224;22.528;2023-06-05T13:45:16;640.20;128.00
66831;DHT22;53739;44.224;22.528;2023-06-05T13:47:45;640.10;128.00
66831;DHT22;53739;44.224;22.528;2023-06-05T13:50:12;640.10;128.00
66831;DHT22;53739;44.224;22.528;2023-06-05T13:52:47;640.10;128.00
66831;DHT22;53739;44.224;22.528;2023-06-05T13:55:16;640.00;128.00
66831;DHT22;53739;44.224;22.528;2023-06-05T13:57:42;640.00;128.00
66831;DHT22;53739;44.224;22.528;2023-06-05T14:00:08;640.00;128.00
66831;DHT22;53739;44.224;22.528;2023-06-05T14:02:34;640.00;128.00
66831;DHT22;53739;44.224;22.528;2023-06-05T14:05:00;640.10;128.00
66831;DHT22;53739;44.224;22.528;2023-06-05T14:07:26;640.10;128.00
66831;DHT22;53739;44.224;22.528;2023-06-05T14:09:52;640.20;128.00
66831;DHT22;53739;44.224;22.528;2023-06-05T14:12:18;640.20;128.00
66831;DHT22;53739;44.224;22.528;2023-06-05T14:14:45;640.20;128.00
66831;DHT22;53739;44.224;22.528;2023-06-05T14:17:10;640.40;128.00
66831;DHT22;53739;44.224;22.528;2023-06-05T14:19:36;640.40;128.00
66831;DHT22;53739;44.224;22.528;2023-06-05T14:22:02;640.40;128.00
66831;DHT22;53739;44.224;22.528;2023-06-05T14:24:31;640.40;128.00
66831;DHT22;53739;44.224;22.528;2023-06-05T14:26:57;640.20;128.00
66831;DHT22;53739;44.224;22.528;2023-06-05T14:29:23;640.20;128.00
66831;DHT22;53739;44.224;22.528;2023-06-05T14:31:49;640.20;128.00
66831;DHT22;53739;44.224;22.528;2023-06-05T14:34:15;640.20;128.00
66831;DHT22;53739;44.224;22.528;2023-06-05T14:36:41;640.30;128.00
66831;DHT22;53739;44.224;22.528;2023-06-05T14:39:10;640.40;128.00
66831;DHT22;53739;44.224;22.528;2023-06-05T14:41:43;640.50;128.00
66831;DHT22;53739;44.224;22.528;2023-06-05T14:44:12;640.50;128.00
66831;DHT22;53739;44.224;22.528;2023-06-05T14:46:38;640.50;128.00
66831;DHT22;53739;44.224;22.528;2023-06-05T14:49:03;640.60;128.00
66831;DHT22;53739;44.224;22.528;2023-06-05T14:51:29;640.60;128.00
66831;DHT22;53739;44.224;22.528;2023-06-05T14:54:03;640.60;307.20
66831;DHT22;53739;44.224;22.528;2023-06-05T14:56:28;640.60;128.00
66831;DHT22;53739;44.224;22.528;2023-06-05T14:58:54;640.60;128.00
66831;DHT22;53739;44.224;22.528;2023-06-05T15:01:20;640.60;128.00
66831;DHT22;53739;44.224;22.528;2023-06-05T15:03:46;640.50;128.00
66831;DHT22;53739;44.224;22.528;2023-06-05T15:06:12;640.50;128.00
66831;DHT22;53739;44.224;22.528;2023-06-05T15:08:38;640.50;128.00
66831;DHT22;53739;44.224;22.528;2023-06-05T15:11:04;640.50;128.00
66831;DHT22;53739;44.224;22.528;2023-06-05T15:13:36;640.40;128.00
66831;DHT22;53739;44.224;22.528;2023-06-05T15:16:02;640.20;128.00
66831;DHT22;53739;44.224;22.528;2023-06-05T15:18:31;640.20;128.00
66831;DHT22;53739;44.224;22.528;2023-06-05T15:20:57;640.20;128.00
66831;DHT22;53739;44.224;22.528;2023-06-05T15:23:23;640.30;128.00
66831;DHT22;53739;44.224;22.528;2023-06-05T15:25:48;640.40;128.00
66831;DHT22;53739;44.224;22.528;2023-06-05T15:28:14;640.40;128.00
66831;DHT22;53739;44.224;22.528;2023-06-05T15:30:42;640.20;128.00
66831;DHT22;53739;44.224;22.528;2023-06-05T15:33:08;640.20;128.00
66831;DHT22;53739;44.224;22.528;2023-06-05T15:35:33;640.10;128.00
66831;DHT22;53739;44.224;22.528;2023-06-05T15:37:59;640.00;128.00
66831;DHT22;53739;44.224;22.528;2023-06-05T15:40:35;640.00;128.00
66831;DHT22;53739;44.224;22.528;2023-06-05T15:43:08;640.00;128.00
66831;DHT22;53739;44.224;22.528;2023-06-05T15:45:49;640.00;128.00
66831;DHT22;53739;44.224;22.528;2023-06-05T15:48:18;640.00;128.00
66831;DHT22;53739;44.224;22.528;2023-06-05T15:50:52;615.30;128.00
66831;DHT22;53739;44.224;22.528;2023-06-05T15:53:45;615.30;358.40
66831;DHT22;53739;44.224;22.528;2023-06-05T15:56:11;615.30;128.00
66831;DHT22;53739;44.224;22.528;2023-06-05T15:58:37;615.30;128.00
66831;DHT22;53739;44.224;22.528;2023-06-05T16:01:03;615.30;128.00
66831;DHT22;53739;44.224;22.528;2023-06-05T16:03:29;615.20;128.00
66831;DHT22;53739;44.224;22.528;2023-06-05T16:06:21;615.20;128.00
66831;DHT22;53739;44.224;22.528;2023-06-05T16:11:50;615.10;128.00
66831;DHT22;53739;44.224;22.528;2023-06-05T16:14:16;615.10;128.00
66831;DHT22;53739;44.224;22.528;2023-06-05T16:16:42;615.00;128.00
66831;DHT22;53739;44.224;22.528;2023-06-05T16:19:10;615.00;128.00
66831;DHT22;53739;44.224;22.528;2023-06-05T16:21:37;614.90;128.00
66831;DHT22;53739;44.224;22.528;2023-06-05T16:24:03;614.90;128.00
66831;DHT22;53739;44.224;22.528;2023-06-05T16:26:30;614.90;128.00
66831;DHT22;53739;44.224;22.528;2023-06-05T16:28:55;614.90;1100.80
66831;DHT22;53739;44.224;22.528;2023-06-05T16:31:30;614.80;2432.00
66831;DHT22;53739;44.224;22.528;2023-06-05T16:34:07;614.80;2432.00
66831;DHT22;53739;44.224;22.528;2023-06-05T16:36:34;614.80;2432.00
66831;DHT22;53739;44.224;22.528;2023-06-05T16:39:00;614.80;2432.00
66831;DHT22;53739;44.224;22.528;2023-06-05T16:41:26;614.70;2432.00
66831;DHT22;53739;44.224;22.528;2023-06-05T16:43:52;614.60;2432.00
66831;DHT22;53739;44.224;22.528;2023-06-05T16:46:18;614.60;2432.00
66831;DHT22;53739;44.224;22.528;2023-06-05T16:48:47;614.60;2432.00
66831;DHT22;53739;44.224;22.528;2023-06-05T16:51:13;614.50;2432.00
66831;DHT22;53739;44.224;22.528;2023-06-05T16:53:40;614.50;2252.80
66831;DHT22;53739;44.224;22.528;2023-06-05T16:56:06;614.40;2432.00
66831;DHT22;53739;44.224;22.528;2023-06-05T16:58:32;589.70;2432.00
66831;DHT22;53739;44.224;22.528;2023-06-05T17:00:58;589.70;2124.80
66831;DHT22;53739;44.224;22.528;2023-06-05T17:03:24;589.60;1664.00
66831;DHT22;53739;44.224;22.528;2023-06-05T17:05:50;589.60;128.00
66831;DHT22;53739;44.224;22.528;2023-06-05T17:08:18;589.60;716.80
66831;DHT22;53739;44.224;22.528;2023-06-05T17:10:44;589.50;716.80
66831;DHT22;53739;44.224;22.528;2023-06-05T17:13:10;589.40;230.40
66831;DHT22;53739;44.224;22.528;2023-06-05T17:15:36;589.40;128.00
66831;DHT22;53739;44.224;22.528;2023-06-05T17:18:02;589.30;307.20
66831;DHT22;53739;44.224;22.528;2023-06-05T17:20:28;589.20;819.20
66831;DHT22;53739;44.224;22.528;2023-06-05T17:22:54;589.10;128.00
66831;DHT22;53739;44.224;22.528;2023-06-05T17:25:20;589.00;128.00
66831;DHT22;53739;44.224;22.528;2023-06-05T17:27:45;589.00;128.00